Time;durP1;ratioP1;P1;durP2;ratioP2;P2;SDS_P1;SDS_P2;PMS_P1;PMS_P2;Temp;Humidity;BMP_temperature;BMP_pressure;BME280_temperature;BME280_humidity;BME280_pressure;Samples;Min_cycle;Max_cycle;Signal;HPM_P1;HPM_P2
2022/03/26 00:00:24;;;;;;;;;88.75;81.75;14.10;33.80;;;;;;4978207;28;8864;-59
2022/03/26 00:02:51;;;;;;;;;88.25;75.75;13.20;35.50;;;;;;4978283;28;9622;-61
2022/03/26 00:05:17;;;;;;;;;83.50;74.25;13.50;34.90;;;;;;4978189;28;8766;-61
2022/03/26 00:07:44;;;;;;;;;72.25;57.00;13.60;35.00;;;;;;4977891;28;8774;-61
2022/03/26 00:10:11;;;;;;;;;66.00;54.00;13.70;34.30;;;;;;4978037;28;8810;-63
2022/03/26 00:12:39;;;;;;;;;66.75;52.00;14.10;33.60;;;;;;4977632;28;8805;-60
2022/03/26 00:15:05;;;;;;;;;60.75;50.00;14.00;33.70;;;;;;4977948;28;8778;-61
2022/03/26 00:17:32;;;;;;;;;64.00;52.25;13.50;34.60;;;;;;4977703;28;8806;-60
2022/03/26 00:19:57;;;;;;;;;62.00;49.25;13.70;35.40;;;;;;4977945;28;8771;-60
2022/03/26 00:22:24;;;;;;;;;54.25;44.25;13.50;34.50;;;;;;4977622;28;8815;-60
2022/03/26 00:24:50;;;;;;;;;53.75;45.00;13.40;34.80;;;;;;4977852;28;8762;-60
2022/03/26 00:27:17;;;;;;;;;71.00;57.00;13.60;34.40;;;;;;4977286;28;8766;-60
2022/03/26 00:29:43;;;;;;;;;69.00;54.75;13.50;34.60;;;;;;4976805;28;8774;-60
2022/03/26 00:32:09;;;;;;;;;71.25;56.50;13.70;34.50;;;;;;4970618;28;8879;-60
2022/03/26 00:34:35;;;;;;;;;68.75;55.00;13.80;34.40;;;;;;4958100;28;8769;-61
2022/03/26 00:37:01;;;;;;;;;65.00;51.00;13.80;34.10;;;;;;4958044;28;8816;-59
2022/03/26 00:39:27;;;;;;;;;64.00;53.00;13.70;34.50;;;;;;4957784;28;8967;-61
2022/03/26 00:41:53;;;;;;;;;60.75;50.00;13.70;34.30;;;;;;4958283;28;8887;-60
2022/03/26 00:44:20;;;;;;;;;68.75;54.75;14.00;34.00;;;;;;4958208;28;8895;-59
2022/03/26 00:46:46;;;;;;;;;68.50;55.00;13.70;34.40;;;;;;4957844;28;8823;-60
2022/03/26 00:49:17;;;;;;;;;70.25;57.00;13.80;34.40;;;;;;4957881;28;8764;-61
2022/03/26 00:51:43;;;;;;;;;75.25;58.00;13.70;34.80;;;;;;4957926;28;8748;-61
2022/03/26 00:54:09;;;;;;;;;71.75;57.75;13.50;35.00;;;;;;4958054;28;8769;-61
2022/03/26 00:56:36;;;;;;;;;69.50;55.50;13.20;34.80;;;;;;4957637;28;8894;-61
2022/03/26 00:59:02;;;;;;;;;71.25;57.00;12.40;36.80;;;;;;4957940;28;8803;-61
2022/03/26 01:01:28;;;;;;;;;77.25;60.00;12.10;37.90;;;;;;4957871;28;8756;-60
2022/03/26 01:03:54;;;;;;;;;70.50;57.25;12.40;37.60;;;;;;4957520;28;8796;-60
2022/03/26 01:06:20;;;;;;;;;78.25;60.00;12.70;36.90;;;;;;4957513;28;8780;-60
2022/03/26 01:08:46;;;;;;;;;73.00;58.50;13.10;35.90;;;;;;4957335;28;8785;-60
2022/03/26 01:11:12;;;;;;;;;71.00;56.00;13.40;35.40;;;;;;4957465;28;8788;-60
2022/03/26 01:13:39;;;;;;;;;75.50;60.00;13.30;35.20;;;;;;4970699;28;8779;-61
2022/03/26 01:16:08;;;;;;;;;73.25;59.00;13.40;35.30;;;;;;4976716;28;8836;-61
2022/03/26 01:18:33;;;;;;;;;76.75;60.00;13.00;36.80;;;;;;4976524;28;8814;-61
2022/03/26 01:21:00;;;;;;;;;71.00;57.25;13.10;36.00;;;;;;4976809;28;8771;-61
2022/03/26 01:23:26;;;;;;;;;74.00;57.00;13.30;35.90;;;;;;4976604;28;8881;-61
2022/03/26 01:25:52;;;;;;;;;78.75;61.50;13.10;36.30;;;;;;4976535;28;8782;-61
2022/03/26 01:28:18;;;;;;;;;78.00;61.25;13.10;36.40;;;;;;4976438;28;8782;-60
2022/03/26 01:30:44;;;;;;;;;77.50;63.25;13.00;36.50;;;;;;4976430;28;8798;-62
2022/03/26 01:33:10;;;;;;;;;75.75;60.50;13.20;36.30;;;;;;4976614;28;8794;-61
2022/03/26 01:35:35;;;;;;;;;89.75;77.00;13.10;35.90;;;;;;4976311;28;8840;-61
2022/03/26 01:38:04;;;;;;;;;103.00;94.50;13.10;36.20;;;;;;4976060;28;8948;-60
2022/03/26 01:40:31;;;;;;;;;108.00;100.50;13.20;36.30;;;;;;4964353;28;8827;-62
2022/03/26 01:42:57;;;;;;;;;118.25;109.00;12.30;38.20;;;;;;4957177;28;8764;-59
2022/03/26 01:45:23;;;;;;;;;123.00;115.50;12.00;39.50;;;;;;4956865;28;8913;-60
2022/03/26 01:47:49;;;;;;;;;123.00;117.25;11.50;40.80;;;;;;4956827;28;8787;-60
2022/03/26 01:50:15;;;;;;;;;112.75;103.75;11.10;42.20;;;;;;4956759;28;8776;-60
2022/03/26 01:52:41;;;;;;;;;107.75;98.75;11.00;43.00;;;;;;4956785;28;8895;-60
2022/03/26 01:55:08;;;;;;;;;92.75;85.75;10.70;44.30;;;;;;4956770;28;8776;-60
2022/03/26 01:57:34;;;;;;;;;95.25;86.50;10.60;44.90;;;;;;4956879;28;8848;-60
2022/03/26 02:00:01;;;;;;;;;78.75;61.00;10.60;45.10;;;;;;4956955;28;8787;-60
2022/03/26 02:02:27;;;;;;;;;85.50;65.00;11.10;43.80;;;;;;4956671;28;8757;-59
2022/03/26 02:04:52;;;;;;;;;81.25;63.50;11.20;43.20;;;;;;4956515;28;8776;-60
2022/03/26 02:07:18;;;;;;;;;76.25;59.75;11.50;42.50;;;;;;4956498;28;8821;-60
2022/03/26 02:09:44;;;;;;;;;72.75;60.75;11.70;41.70;;;;;;4956744;28;8883;-61
2022/03/26 02:12:30;;;;;;;;;76.00;59.25;11.80;41.60;;;;;;4956437;28;9427;-60
2022/03/26 02:14:57;;;;;;;;;78.00;58.25;11.30;43.10;;;;;;4956680;28;9463;-61
2022/03/26 02:17:23;;;;;;;;;75.75;60.25;11.10;43.50;;;;;;4956323;28;8812;-60
2022/03/26 02:19:59;;;;;;;;;74.50;60.75;11.50;42.60;;;;;;4956588;28;8773;-60
2022/03/26 02:22:28;;;;;;;;;78.75;61.75;11.40;43.20;;;;;;4956573;28;9514;-60
2022/03/26 02:24:54;;;;;;;;;80.75;63.00;11.30;43.00;;;;;;4956572;28;8908;-61
2022/03/26 02:27:21;;;;;;;;;80.50;63.75;11.70;42.10;;;;;;4956308;28;8764;-61
2022/03/26 02:29:47;;;;;;;;;77.50;58.25;11.80;42.10;;;;;;4956427;28;9415;-61
2022/03/26 02:32:13;;;;;;;;;80.00;62.25;12.00;41.30;;;;;;4956452;28;8764;-61
2022/03/26 02:34:39;;;;;;;;;80.50;67.75;12.50;40.30;;;;;;4956120;29;8768;-61
2022/03/26 02:37:05;;;;;;;;;79.25;63.25;12.50;39.90;;;;;;4956064;29;8820;-62
2022/03/26 02:39:30;;;;;;;;;85.50;72.25;12.20;40.10;;;;;;4956082;29;8871;-62
2022/03/26 02:41:56;;;;;;;;;82.25;63.75;12.60;39.50;;;;;;4956110;29;8816;-60
2022/03/26 02:44:23;;;;;;;;;84.25;69.50;12.60;39.50;;;;;;4956069;29;8768;-60
2022/03/26 02:46:48;;;;;;;;;77.25;60.50;12.50;39.70;;;;;;4956315;29;8819;-60
2022/03/26 02:49:15;;;;;;;;;79.75;65.50;11.90;40.40;;;;;;4956034;29;8769;-60
2022/03/26 02:51:42;;;;;;;;;80.75;65.25;12.20;40.20;;;;;;4957645;28;8772;-60
2022/03/26 02:54:18;;;;;;;;;79.75;63.50;12.20;39.90;;;;;;4959976;28;8807;-60
2022/03/26 02:56:48;;;;;;;;;80.50;63.25;12.10;39.90;;;;;;4959844;28;8844;-60
2022/03/26 02:59:15;;;;;;;;;76.25;60.75;12.10;40.10;;;;;;4959881;28;8808;-60
2022/03/26 03:01:41;;;;;;;;;83.00;67.75;12.40;39.90;;;;;;4959784;28;8871;-60
2022/03/26 03:04:07;;;;;;;;;75.25;60.75;12.40;39.70;;;;;;4959771;28;8773;-60
2022/03/26 03:06:34;;;;;;;;;80.50;68.25;12.30;40.10;;;;;;4959759;28;8818;-60
2022/03/26 03:09:01;;;;;;;;;78.50;61.75;12.60;39.80;;;;;;4959533;28;8911;-61
2022/03/26 03:11:27;;;;;;;;;81.25;64.25;12.70;39.50;;;;;;4959697;28;8765;-60
2022/03/26 03:13:53;;;;;;;;;88.25;69.25;12.70;39.40;;;;;;4959786;28;8887;-60
2022/03/26 03:16:19;;;;;;;;;81.25;66.00;12.40;39.60;;;;;;4959411;28;8781;-60
2022/03/26 03:18:44;;;;;;;;;86.25;73.00;12.30;40.10;;;;;;4959676;28;8862;-60
2022/03/26 03:21:10;;;;;;;;;90.00;76.75;12.20;40.40;;;;;;4959409;28;8795;-60
2022/03/26 03:23:36;;;;;;;;;87.00;73.00;11.90;41.30;;;;;;4959589;28;8776;-60
2022/03/26 03:26:02;;;;;;;;;91.50;81.00;11.90;40.90;;;;;;4959426;28;8878;-61
2022/03/26 03:28:28;;;;;;;;;82.25;64.75;11.80;41.30;;;;;;4959518;28;8780;-61
2022/03/26 03:30:54;;;;;;;;;89.00;71.25;12.10;41.10;;;;;;4959504;28;8792;-60
2022/03/26 03:33:20;;;;;;;;;82.75;70.00;12.20;41.00;;;;;;4959484;28;8823;-60
2022/03/26 03:35:46;;;;;;;;;96.00;80.25;12.20;40.60;;;;;;4959184;28;8773;-61
2022/03/26 03:38:11;;;;;;;;;91.75;80.25;12.00;40.80;;;;;;4958928;28;8921;-61
2022/03/26 03:40:37;;;;;;;;;83.00;66.00;12.20;40.60;;;;;;4959481;28;8815;-60
2022/03/26 03:43:03;;;;;;;;;79.25;62.00;12.00;40.90;;;;;;4959321;28;8753;-60
2022/03/26 03:45:29;;;;;;;;;81.75;63.25;11.60;41.30;;;;;;4959287;28;8791;-60
2022/03/26 03:47:54;;;;;;;;;83.00;66.50;11.70;40.80;;;;;;4958978;28;8777;-59
2022/03/26 03:50:20;;;;;;;;;83.00;63.00;11.80;40.70;;;;;;4959032;28;8745;-60
2022/03/26 03:52:46;;;;;;;;;87.25;66.75;11.70;40.40;;;;;;4959097;28;8776;-60
2022/03/26 03:55:12;;;;;;;;;80.50;65.25;11.70;41.10;;;;;;4958890;28;8859;-61
2022/03/26 03:57:44;;;;;;;;;77.00;58.25;11.70;40.00;;;;;;4958659;28;8816;-60
2022/03/26 04:00:15;;;;;;;;;69.25;56.25;11.70;39.80;;;;;;4958786;28;8768;-60
2022/03/26 04:02:42;;;;;;;;;68.75;54.00;11.60;39.40;;;;;;4957829;28;8769;-60
2022/03/26 04:05:13;;;;;;;;;67.75;53.50;11.80;39.00;;;;;;4958888;28;8764;-60
2022/03/26 04:07:43;;;;;;;;;74.00;57.50;11.80;39.00;;;;;;4958668;28;8772;-60
2022/03/26 04:10:10;;;;;;;;;74.00;59.25;11.80;39.00;;;;;;4959061;28;8828;-59
2022/03/26 04:12:40;;;;;;;;;72.50;58.50;11.60;39.40;;;;;;4958620;28;8784;-59
2022/03/26 04:15:07;;;;;;;;;75.75;59.75;11.60;39.40;;;;;;4958750;28;8765;-59
2022/03/26 04:17:33;;;;;;;;;75.25;59.75;11.40;39.40;;;;;;4941576;28;8847;-59
2022/03/26 04:20:01;;;;;;;;;84.00;65.25;11.10;40.30;;;;;;4958471;28;8757;-59
2022/03/26 04:22:27;;;;;;;;;75.75;57.75;11.50;40.10;;;;;;4958314;28;8788;-59
2022/03/26 04:24:53;;;;;;;;;72.25;58.75;11.40;40.00;;;;;;4958291;28;8811;-59
2022/03/26 04:27:18;;;;;;;;;73.50;59.50;11.50;39.60;;;;;;4958240;28;8773;-60
2022/03/26 04:29:44;;;;;;;;;75.75;59.25;11.40;39.70;;;;;;4958572;28;8796;-59
2022/03/26 04:32:10;;;;;;;;;75.25;59.00;11.40;39.90;;;;;;4958445;28;8839;-60
2022/03/26 04:34:37;;;;;;;;;74.00;60.25;11.40;39.80;;;;;;4958121;28;8784;-60
2022/03/26 04:37:05;;;;;;;;;62.00;49.00;11.10;39.90;;;;;;4958041;28;8824;-60
2022/03/26 04:39:30;;;;;;;;;75.75;59.75;11.00;40.90;;;;;;4967074;28;8839;-60
2022/03/26 04:41:56;;;;;;;;;77.75;63.25;11.10;40.40;;;;;;4969434;28;8782;-60
2022/03/26 04:44:22;;;;;;;;;70.50;56.75;11.10;40.50;;;;;;4956979;28;8781;-59
2022/03/26 04:46:48;;;;;;;;;60.25;50.25;11.00;41.00;;;;;;4957967;28;8769;-60
2022/03/26 04:49:13;;;;;;;;;60.75;48.75;11.20;40.30;;;;;;4956459;28;8800;-59
2022/03/26 04:51:39;;;;;;;;;67.75;55.25;11.50;39.60;;;;;;4958044;28;8793;-60
2022/03/26 04:54:05;;;;;;;;;65.50;52.75;11.40;39.70;;;;;;4957783;28;8891;-59
2022/03/26 04:56:30;;;;;;;;;68.50;55.25;11.40;39.60;;;;;;4957918;28;8789;-60
2022/03/26 04:58:57;;;;;;;;;71.00;56.75;11.40;39.70;;;;;;4957767;28;8768;-60
2022/03/26 05:01:23;;;;;;;;;62.75;51.00;11.70;38.90;;;;;;4975041;28;8798;-59
2022/03/26 05:03:50;;;;;;;;;64.25;51.25;11.60;39.10;;;;;;4976851;28;8778;-59
2022/03/26 05:06:16;;;;;;;;;60.00;49.75;11.30;40.10;;;;;;4977156;28;9420;-60
2022/03/26 05:08:41;;;;;;;;;64.25;52.50;11.50;39.60;;;;;;4976921;28;8762;-59
2022/03/26 05:11:07;;;;;;;;;70.25;54.25;11.40;39.30;;;;;;4976659;28;8829;-59
2022/03/26 05:13:33;;;;;;;;;74.00;59.25;11.20;39.70;;;;;;4959653;28;8960;-59
2022/03/26 05:15:59;;;;;;;;;116.00;103.00;11.10;40.00;;;;;;4976480;28;8773;-59
2022/03/26 05:18:26;;;;;;;;;136.75;125.00;11.10;39.80;;;;;;4959637;28;9581;-59
2022/03/26 05:20:51;;;;;;;;;135.75;128.00;11.40;39.50;;;;;;4957571;28;8784;-59
2022/03/26 05:23:17;;;;;;;;;124.75;109.75;11.40;39.10;;;;;;4957461;28;9451;-59
2022/03/26 05:25:43;;;;;;;;;106.25;94.50;11.30;39.20;;;;;;4967379;28;8908;-60
2022/03/26 05:28:09;;;;;;;;;82.75;66.00;10.70;41.20;;;;;;4963392;28;8887;-59
2022/03/26 05:30:35;;;;;;;;;75.50;59.50;10.80;41.00;;;;;;4957141;28;8768;-59
2022/03/26 05:33:02;;;;;;;;;72.50;57.25;11.30;40.00;;;;;;4957281;28;8938;-59
2022/03/26 05:35:28;;;;;;;;;73.75;57.25;11.50;39.40;;;;;;4957274;28;8899;-60
2022/03/26 05:37:53;;;;;;;;;71.00;52.75;11.40;39.40;;;;;;4956638;28;9446;-60
2022/03/26 05:40:21;;;;;;;;;68.00;52.25;11.00;40.60;;;;;;4963646;28;8832;-59
2022/03/26 05:42:49;;;;;;;;;52.25;46.00;11.00;40.50;;;;;;4976183;28;8820;-60
2022/03/26 05:45:15;;;;;;;;;63.75;52.00;11.10;40.40;;;;;;4973987;28;8889;-59
2022/03/26 05:47:41;;;;;;;;;66.00;52.50;11.30;40.00;;;;;;4956837;28;8942;-60
2022/03/26 05:50:10;;;;;;;;;56.50;47.00;10.70;41.20;;;;;;4956853;28;8783;-59
2022/03/26 05:52:36;;;;;;;;;71.75;57.00;11.10;41.00;;;;;;4956708;28;8768;-60
2022/03/26 05:55:02;;;;;;;;;69.00;55.00;10.90;41.60;;;;;;4970042;28;9417;-60
2022/03/26 05:57:28;;;;;;;;;70.00;55.00;10.90;41.50;;;;;;4976114;28;8857;-60
2022/03/26 05:59:54;;;;;;;;;59.75;49.00;11.20;40.90;;;;;;4975901;28;9466;-60
2022/03/26 06:02:21;;;;;;;;;68.00;55.00;11.40;40.50;;;;;;4975934;28;8766;-60
2022/03/26 06:04:47;;;;;;;;;68.50;53.00;11.50;39.80;;;;;;4975888;28;8846;-59
2022/03/26 06:07:12;;;;;;;;;66.00;53.00;11.90;39.60;;;;;;4958403;28;8916;-61
2022/03/26 06:09:38;;;;;;;;;68.75;55.00;12.10;39.50;;;;;;4956439;28;9090;-61
2022/03/26 06:12:06;;;;;;;;;65.25;52.00;12.10;39.50;;;;;;4956727;28;8799;-61
2022/03/26 06:14:32;;;;;;;;;67.25;52.75;12.20;39.70;;;;;;4956621;28;8769;-60
2022/03/26 06:16:58;;;;;;;;;69.75;53.25;12.00;40.40;;;;;;4956520;28;8839;-60
2022/03/26 06:19:26;;;;;;;;;69.50;56.00;12.30;39.30;;;;;;4939294;28;8797;-60
2022/03/26 06:21:52;;;;;;;;;70.75;56.00;12.50;38.90;;;;;;4956581;28;8777;-60
2022/03/26 06:24:18;;;;;;;;;61.00;49.25;12.70;38.60;;;;;;4956545;28;8776;-60
2022/03/26 06:26:44;;;;;;;;;64.50;52.50;12.90;38.20;;;;;;4956034;28;8811;-60
2022/03/26 06:29:12;;;;;;;;;69.50;54.25;13.00;37.90;;;;;;4956230;28;8784;-59
2022/03/26 06:31:38;;;;;;;;;66.00;52.50;12.90;37.80;;;;;;4956272;28;8807;-59
2022/03/26 06:34:04;;;;;;;;;68.00;55.25;12.70;38.60;;;;;;4956192;28;8788;-61
2022/03/26 06:36:30;;;;;;;;;67.50;53.50;13.10;37.90;;;;;;4956305;29;8843;-60
2022/03/26 06:38:56;;;;;;;;;75.00;59.25;13.40;37.40;;;;;;4955967;29;9440;-61
2022/03/26 06:41:22;;;;;;;;;72.75;57.25;13.10;38.00;;;;;;4973038;28;8806;-61
2022/03/26 06:43:48;;;;;;;;;72.75;57.50;13.10;38.10;;;;;;4975551;28;8860;-61
2022/03/26 06:46:14;;;;;;;;;79.50;59.50;13.20;37.80;;;;;;4975199;28;8790;-62
2022/03/26 06:48:40;;;;;;;;;68.75;53.25;13.10;38.20;;;;;;4975292;28;8781;-62
2022/03/26 06:51:08;;;;;;;;;72.00;57.50;13.30;37.50;;;;;;4975248;28;8786;-62
2022/03/26 06:53:34;;;;;;;;;71.75;58.25;13.50;37.50;;;;;;4975238;28;8812;-61
2022/03/26 06:56:00;;;;;;;;;68.50;55.25;13.50;37.50;;;;;;4975464;28;8770;-61
2022/03/26 06:58:26;;;;;;;;;62.75;52.00;13.50;36.40;;;;;;4975201;28;8837;-60
2022/03/26 07:00:52;;;;;;;;;71.50;56.75;13.30;37.30;;;;;;4975224;28;9449;-60
2022/03/26 07:03:19;;;;;;;;;60.00;48.50;13.30;37.60;;;;;;4975150;28;8770;-61
2022/03/26 07:05:46;;;;;;;;;61.75;49.50;13.60;37.30;;;;;;4975487;28;9547;-61
2022/03/26 07:08:12;;;;;;;;;66.00;52.75;13.50;37.60;;;;;;4975207;28;8860;-61
2022/03/26 07:10:41;;;;;;;;;60.25;48.75;13.90;37.20;;;;;;4975472;28;8814;-62
2022/03/26 07:13:07;;;;;;;;;62.00;51.75;13.70;37.70;;;;;;4975229;28;8889;-61
2022/03/26 07:15:33;;;;;;;;;60.25;48.50;13.80;37.60;;;;;;4975317;28;8787;-61
2022/03/26 07:17:59;;;;;;;;;66.75;53.75;13.80;37.50;;;;;;4975004;28;8806;-62
2022/03/26 07:20:25;;;;;;;;;63.25;52.25;13.70;37.90;;;;;;4975288;28;8767;-61
2022/03/26 07:22:51;;;;;;;;;65.00;50.50;14.30;37.00;;;;;;4975044;28;8774;-61
2022/03/26 07:25:17;;;;;;;;;73.50;58.00;14.30;36.70;;;;;;4974418;28;8912;-59
2022/03/26 07:27:42;;;;;;;;;70.00;56.50;14.30;36.60;;;;;;4967255;28;8780;-60
2022/03/26 07:30:09;;;;;;;;;65.75;52.50;14.20;37.40;;;;;;4955675;28;8820;-60
2022/03/26 07:32:36;;;;;;;;;63.75;51.25;13.90;38.20;;;;;;4955586;29;8752;-60
2022/03/26 07:35:03;;;;;;;;;62.75;51.00;14.10;38.10;;;;;;4955917;29;9451;-60
2022/03/26 07:37:29;;;;;;;;;59.75;48.25;14.00;37.80;;;;;;4956731;28;8872;-59
2022/03/26 07:39:55;;;;;;;;;50.00;42.00;14.20;37.50;;;;;;4959188;28;8836;-60
2022/03/26 07:42:21;;;;;;;;;52.50;43.00;14.50;36.60;;;;;;4959907;28;9404;-60
2022/03/26 07:44:47;;;;;;;;;45.00;40.75;14.60;36.70;;;;;;4977424;28;8802;-60
2022/03/26 07:47:12;;;;;;;;;44.00;37.50;14.80;35.90;;;;;;4971603;28;8817;-60
2022/03/26 07:49:38;;;;;;;;;44.50;38.50;14.90;35.50;;;;;;4978332;28;8802;-60
2022/03/26 07:52:05;;;;;;;;;44.50;39.00;15.10;35.10;;;;;;4978131;28;8903;-60
2022/03/26 07:54:30;;;;;;;;;45.25;39.25;15.10;35.30;;;;;;4978117;28;8839;-60
2022/03/26 07:56:56;;;;;;;;;41.00;34.00;15.30;35.90;;;;;;4975833;28;8936;-61
2022/03/26 07:59:22;;;;;;;;;42.00;36.00;15.30;34.40;;;;;;4978080;28;8803;-60
2022/03/26 08:01:48;;;;;;;;;43.75;37.50;15.40;35.10;;;;;;4967667;28;8799;-60
2022/03/26 08:04:14;;;;;;;;;39.25;34.75;15.70;34.70;;;;;;4958576;28;8796;-61
2022/03/26 08:06:40;;;;;;;;;42.75;36.75;15.50;35.50;;;;;;4958920;28;8823;-61
2022/03/26 08:09:06;;;;;;;;;45.75;40.50;15.60;35.70;;;;;;4958528;28;8792;-61
2022/03/26 08:11:32;;;;;;;;;41.75;35.25;15.60;35.20;;;;;;4958640;28;8777;-60
2022/03/26 08:13:57;;;;;;;;;45.50;36.25;15.80;35.20;;;;;;4958592;28;8799;-61
2022/03/26 08:16:23;;;;;;;;;29.50;26.25;16.10;34.40;;;;;;4960436;28;8893;-61
2022/03/26 08:18:49;;;;;;;;;39.50;34.00;16.20;33.70;;;;;;4969199;28;8812;-61
2022/03/26 08:21:16;;;;;;;;;41.50;37.50;16.20;34.00;;;;;;4966684;28;8806;-61
2022/03/26 08:23:41;;;;;;;;;39.75;35.25;16.40;33.70;;;;;;4958162;28;8834;-60
2022/03/26 08:26:19;;;;;;;;;35.50;32.00;16.50;34.40;;;;;;4960741;28;8768;-61
2022/03/26 08:28:46;;;;;;;;;37.50;32.00;16.60;34.10;;;;;;4977636;28;8877;-61
2022/03/26 08:31:13;;;;;;;;;35.25;32.25;16.80;32.30;;;;;;4960431;28;8794;-63
2022/03/26 08:33:40;;;;;;;;;37.50;32.25;16.70;31.40;;;;;;4977404;28;8770;-61
2022/03/26 08:36:06;;;;;;;;;32.50;31.00;16.80;31.70;;;;;;4960090;28;8798;-61
2022/03/26 08:38:32;;;;;;;;;30.50;28.75;16.90;30.90;;;;;;4964647;28;8835;-61
2022/03/26 08:40:59;;;;;;;;;32.75;29.25;17.00;30.90;;;;;;4958047;28;9467;-60
2022/03/26 08:43:25;;;;;;;;;36.75;32.25;17.10;30.10;;;;;;4958113;28;8792;-59
2022/03/26 08:45:51;;;;;;;;;37.00;32.50;17.10;30.40;;;;;;4958869;28;8827;-59
2022/03/26 08:48:16;;;;;;;;;16.50;16.25;17.40;29.80;;;;;;4967748;28;8852;-59
2022/03/26 08:50:46;;;;;;;;;39.75;33.75;17.40;30.00;;;;;;4965627;28;8803;-61
2022/03/26 08:53:12;;;;;;;;;37.50;32.75;17.70;29.90;;;;;;4970776;28;8786;-62
2022/03/26 08:55:38;;;;;;;;;32.25;29.75;17.50;30.00;;;;;;4966206;28;9459;-61
2022/03/26 08:58:04;;;;;;;;;36.75;31.00;17.30;30.30;;;;;;4966155;28;8937;-62
2022/03/26 09:00:30;;;;;;;;;36.00;31.50;17.10;30.90;;;;;;4963815;28;8787;-63
2022/03/26 09:02:56;;;;;;;;;32.00;31.25;17.10;30.20;;;;;;4975128;28;8808;-61
2022/03/26 09:05:22;;;;;;;;;32.00;29.50;16.80;30.00;;;;;;4975525;28;8794;-59
2022/03/26 09:07:49;;;;;;;;;34.75;30.00;17.10;30.50;;;;;;4976463;28;8798;-60
2022/03/26 09:10:15;;;;;;;;;29.00;25.50;17.00;29.70;;;;;;4975910;28;8790;-62
2022/03/26 09:12:41;;;;;;;;;29.33;27.67;16.80;30.10;;;;;;4976175;28;8770;-62
2022/03/26 09:15:08;;;;;;;;;26.33;26.33;16.80;29.80;;;;;;4976605;28;8791;-62
2022/03/26 09:17:37;;;;;;;;;31.33;30.33;17.20;29.30;;;;;;4974027;28;8857;-64
2022/03/26 09:20:07;;;;;;;;;27.00;21.33;17.20;29.10;;;;;;4971979;28;9479;-62
2022/03/26 09:22:34;;;;;;;;;25.00;24.33;17.40;28.60;;;;;;4960823;28;8784;-65
2022/03/26 09:25:01;;;;;;;;;26.67;25.67;17.10;27.90;;;;;;4957423;28;8784;-64
2022/03/26 09:27:27;;;;;;;;;24.33;23.33;17.30;28.00;;;;;;4957184;28;8947;-63
2022/03/26 09:29:52;;;;;;;;;27.00;25.67;17.30;27.20;;;;;;4959086;28;8904;-63
2022/03/26 09:32:19;;;;;;;;;23.00;23.00;17.60;27.40;;;;;;4965811;28;8788;-63
2022/03/26 09:34:44;;;;;;;;;29.33;27.00;17.70;27.00;;;;;;4957238;28;8781;-63
2022/03/26 09:37:11;;;;;;;;;32.00;28.00;17.70;27.40;;;;;;4963062;28;8826;-63
2022/03/26 09:39:37;;;;;;;;;28.33;28.00;17.70;27.50;;;;;;4976089;28;8851;-63
2022/03/26 09:42:04;;;;;;;;;29.67;29.67;17.80;27.80;;;;;;4976154;28;8819;-63
2022/03/26 09:44:32;;;;;;;;;27.33;24.67;17.90;27.70;;;;;;4976043;28;8809;-64
2022/03/26 09:46:58;;;;;;;;;22.33;20.33;18.10;27.10;;;;;;4976115;28;8803;-63
2022/03/26 09:49:23;;;;;;;;;24.33;22.67;18.20;27.10;;;;;;4987513;28;8788;-63
2022/03/26 09:51:56;;;;;;;;;28.00;26.33;18.20;27.20;;;;;;4995267;28;8883;-65
2022/03/26 09:54:24;;;;;;;;;30.33;28.33;18.40;27.50;;;;;;4980621;28;8812;-62
2022/03/26 09:56:50;;;;;;;;;24.33;21.00;18.50;27.00;;;;;;4975786;28;8892;-62
2022/03/26 09:59:23;;;;;;;;;13.00;13.00;18.30;27.90;;;;;;4976085;28;8788;-64
2022/03/26 10:01:50;;;;;;;;;25.00;23.33;18.70;26.50;;;;;;4975015;28;8766;-62
2022/03/26 10:04:18;;;;;;;;;24.33;24.33;19.10;26.10;;;;;;4975803;28;8786;-61
2022/03/26 10:06:57;;;;;;;;;27.00;26.00;18.80;26.10;;;;;;4975865;28;8848;-64
2022/03/26 10:09:38;;;;;;;;;28.00;25.00;19.10;26.50;;;;;;4975711;28;8799;-65
2022/03/26 10:12:11;;;;;;;;;30.67;28.33;19.50;27.00;;;;;;4975502;28;8790;-64
2022/03/26 10:14:46;;;;;;;;;22.00;22.00;19.60;27.00;;;;;;4968573;28;8777;-64
2022/03/26 10:17:24;;;;;;;;;29.67;26.00;19.40;27.50;;;;;;4968879;28;8856;-63
2022/03/26 10:20:01;;;;;;;;;27.00;26.67;19.70;26.70;;;;;;4973058;28;8798;-64
2022/03/26 10:22:36;;;;;;;;;29.67;25.67;20.10;26.00;;;;;;4975692;28;8770;-64
2022/03/26 10:25:08;;;;;;;;;25.67;25.00;20.10;26.30;;;;;;4975347;28;8767;-63
2022/03/26 10:27:38;;;;;;;;;26.00;23.67;20.00;26.30;;;;;;4958581;28;8884;-63
2022/03/26 10:30:05;;;;;;;;;29.67;27.00;19.70;24.90;;;;;;4967429;28;8822;-62
2022/03/26 10:32:41;;;;;;;;;22.33;21.00;19.30;25.40;;;;;;4972676;28;8805;-65
2022/03/26 10:35:23;;;;;;;;;25.33;21.33;19.70;25.70;;;;;;4974935;28;8808;-63
2022/03/26 10:37:59;;;;;;;;;23.00;21.67;20.10;26.20;;;;;;4975059;28;8821;-65
2022/03/26 10:40:33;;;;;;;;;28.33;25.67;20.80;25.20;;;;;;4975468;28;8814;-63
2022/03/26 10:43:05;;;;;;;;;24.00;21.00;20.70;26.10;;;;;;4973354;28;8785;-63
2022/03/26 10:45:34;;;;;;;;;19.00;19.00;21.10;25.80;;;;;;4965917;28;8792;-63
2022/03/26 10:48:02;;;;;;;;;25.67;22.67;21.50;24.20;;;;;;4965415;28;8982;-63
2022/03/26 10:50:33;;;;;;;;;24.00;20.67;21.40;24.00;;;;;;4982684;28;8782;-62
2022/03/26 10:53:05;;;;;;;;;19.67;19.67;21.40;23.80;;;;;;4974693;28;8774;-62
2022/03/26 10:55:31;;;;;;;;;19.67;19.67;21.60;24.20;;;;;;4970770;28;8766;-67
2022/03/26 10:57:59;;;;;;;;;23.67;21.33;21.50;24.30;;;;;;4975315;28;8865;-66
2022/03/26 11:00:25;;;;;;;;;25.00;23.00;21.60;25.40;;;;;;4957646;28;9483;-68
2022/03/26 11:02:52;;;;;;;;;16.00;15.00;21.90;26.30;;;;;;4974749;28;8858;-66
2022/03/26 11:05:18;;;;;;;;;19.00;19.00;22.40;24.40;;;;;;4975101;28;8821;-65
2022/03/26 11:07:45;;;;;;;;;21.00;20.67;21.90;24.20;;;;;;4975402;28;8766;-66
2022/03/26 11:10:12;;;;;;;;;22.33;22.00;21.70;23.90;;;;;;4975063;28;8894;-68
2022/03/26 11:12:47;;;;;;;;;24.00;23.00;22.00;24.40;;;;;;4976092;28;8809;-66
2022/03/26 11:15:27;;;;;;;;;23.00;21.67;22.20;24.30;;;;;;4978925;28;8801;-64
2022/03/26 11:18:17;;;;;;;;;23.33;23.33;22.60;23.50;;;;;;4978136;28;8798;-65
2022/03/26 11:21:07;;;;;;;;;23.33;23.00;23.10;21.50;;;;;;4976240;28;8805;-66
2022/03/26 11:23:36;;;;;;;;;17.00;17.00;23.50;22.30;;;;;;4977299;28;9428;-65
2022/03/26 11:26:23;;;;;;;;;21.00;18.67;23.40;23.70;;;;;;4977983;28;8771;-67
2022/03/26 11:28:58;;;;;;;;;16.33;15.33;23.40;23.10;;;;;;4974357;28;8759;-65
2022/03/26 11:31:31;;;;;;;;;20.67;20.33;23.80;22.50;;;;;;4970275;28;8810;-67
2022/03/26 11:34:05;;;;;;;;;22.00;21.67;24.40;21.80;;;;;;4966987;28;8768;-65
2022/03/26 11:36:32;;;;;;;;;21.67;19.67;24.80;20.10;;;;;;4974315;28;9393;-65
2022/03/26 11:39:15;;;;;;;;;22.33;21.00;24.30;21.30;;;;;;4964724;28;8832;-66
2022/03/26 11:41:44;;;;;;;;;14.67;14.67;24.80;22.10;;;;;;4966724;28;9429;-63
2022/03/26 11:44:11;;;;;;;;;21.00;21.00;24.90;21.00;;;;;;4969605;28;8778;-63
2022/03/26 11:52:34;;;;;;;;;17.25;17.25;24.80;20.60;;;;;;4937453;29;8821;-66
2022/03/26 11:55:15;;;;;;;;;16.50;16.50;25.80;20.30;;;;;;4963717;28;12103;-65
2022/03/26 11:57:41;;;;;;;;;16.75;16.75;28.00;18.90;;;;;;4966225;28;11491;-67
2022/03/26 12:00:21;;;;;;;;;17.67;17.67;28.90;19.20;;;;;;4966446;28;11493;-62
2022/03/26 12:02:51;;;;;;;;;16.50;16.50;29.80;18.40;;;;;;4974310;28;8767;-64
2022/03/26 12:08:18;;;;;;;;;15.75;15.75;30.20;16.90;;;;;;4977921;28;11409;-63
2022/03/26 12:10:45;;;;;;;;;14.75;14.75;31.70;16.10;;;;;;4977618;28;11445;-65
2022/03/26 12:13:18;;;;;;;;;12.75;12.75;32.20;15.40;;;;;;4978020;28;11552;-62
2022/03/26 12:16:03;;;;;;;;;11.00;11.00;31.80;15.10;;;;;;4971451;28;11418;-62
2022/03/26 12:18:34;;;;;;;;;11.50;11.50;31.30;15.30;;;;;;4979235;28;11471;-66
2022/03/26 12:21:20;;;;;;;;;11.00;11.00;31.20;14.80;;;;;;4977854;28;11546;-63
2022/03/26 12:23:46;;;;;;;;;11.00;11.00;30.40;15.60;;;;;;4957525;28;11542;-67
2022/03/26 12:26:13;;;;;;;;;7.50;7.50;31.40;16.10;;;;;;4964221;28;11427;-64
2022/03/26 12:28:41;;;;;;;;;10.25;10.25;31.70;15.10;;;;;;4977019;28;8757;-62
2022/03/26 12:31:12;;;;;;;;;10.00;10.00;31.20;15.20;;;;;;4976751;28;11522;-64
2022/03/26 12:33:50;;;;;;;;;9.75;9.75;29.90;15.60;;;;;;4977386;28;11459;-63
2022/03/26 12:36:18;;;;;;;;;9.50;9.50;28.80;16.30;;;;;;4977332;28;11455;-67
2022/03/26 12:38:49;;;;;;;;;10.25;10.25;28.60;15.90;;;;;;4976909;28;11522;-68
2022/03/26 12:41:16;;;;;;;;;10.75;10.75;30.20;15.50;;;;;;4973266;28;12095;-60
2022/03/26 12:43:51;;;;;;;;;10.75;10.75;30.90;14.80;;;;;;4975986;28;11406;-61
2022/03/26 12:46:17;;;;;;;;;9.75;9.75;31.40;14.90;;;;;;4973894;28;11497;-60